Time;durP1;ratioP1;P1;durP2;ratioP2;P2;SDS_P1;SDS_P2;PMS_P1;PMS_P2;Temp;Humidity;BMP_temperature;BMP_pressure;BME280_temperature;BME280_humidity;BME280_pressure;Samples;Min_cycle;Max_cycle;Signal;HPM_P1;HPM_P2
2021/09/21 00:00:15;;;;;;;13.90;11.77;;;;;;;10.46;81.75;96252.31;6131525;23;20155;-79
2021/09/21 00:02:40;;;;;;;13.20;11.90;;;;;;;10.47;81.25;96260.94;6155893;23;20178;-79
2021/09/21 00:05:07;;;;;;;14.03;12.07;;;;;;;10.40;82.42;96255.44;6156810;23;20156;-79
2021/09/21 00:07:32;;;;;;;14.93;12.43;;;;;;;10.29;81.31;96259.88;6131456;23;20179;-79
2021/09/21 00:09:57;;;;;;;14.83;12.70;;;;;;;10.36;81.36;96266.22;6131788;23;20233;-78
2021/09/21 00:12:23;;;;;;;15.87;11.90;;;;;;;10.41;81.21;96275.25;6154622;23;20166;-79
2021/09/21 00:14:48;;;;;;;16.87;11.83;;;;;;;10.38;81.39;96265.13;6156629;23;20522;-78
2021/09/21 00:17:13;;;;;;;13.30;11.57;;;;;;;10.42;80.80;96269.13;6157287;23;20167;-79
2021/09/21 00:19:39;;;;;;;12.77;11.47;;;;;;;10.41;80.76;96264.88;6157185;23;20606;-78
2021/09/21 00:22:04;;;;;;;13.27;11.30;;;;;;;10.43;80.76;96272.56;6158993;23;20151;-79
2021/09/21 00:24:30;;;;;;;14.00;11.40;;;;;;;10.33;80.76;96269.06;6156031;23;20529;-78
2021/09/21 00:26:55;;;;;;;13.17;11.83;;;;;;;10.34;80.81;96268.94;6132880;23;20171;-79
2021/09/21 00:29:21;;;;;;;12.07;10.80;;;;;;;10.36;81.03;96271.41;6157263;23;20214;-79
2021/09/21 00:31:55;;;;;;;14.27;10.70;;;;;;;10.39;80.97;96274.56;6158688;23;20227;-79
2021/09/21 00:34:20;;;;;;;13.67;11.73;;;;;;;10.43;81.13;96281.16;6158248;23;20132;-78
2021/09/21 00:36:45;;;;;;;14.17;12.00;;;;;;;10.50;79.17;96284.03;6133011;23;20216;-78
2021/09/21 00:39:11;;;;;;;12.43;11.00;;;;;;;10.45;79.94;96279.25;6158774;23;20199;-78
2021/09/21 00:41:40;;;;;;;13.57;11.77;;;;;;;10.40;78.25;96276.19;6157795;23;20171;-78
2021/09/21 00:44:06;;;;;;;12.57;10.53;;;;;;;10.38;78.71;96272.09;6132141;23;20164;-78
2021/09/21 00:46:31;;;;;;;11.70;10.50;;;;;;;10.47;78.64;96272.16;6132579;23;20171;-78
2021/09/21 00:48:57;;;;;;;15.07;12.07;;;;;;;10.50;78.85;96269.28;6157388;23;20183;-79
2021/09/21 00:51:24;;;;;;;12.90;11.13;;;;;;;10.44;79.16;96269.00;6156804;23;20175;-78
2021/09/21 00:53:50;;;;;;;11.63;10.43;;;;;;;10.45;79.61;96274.06;6153880;23;20643;-78
2021/09/21 00:56:15;;;;;;;12.27;10.83;;;;;;;10.36;79.50;96276.59;6129552;23;20633;-78
2021/09/21 00:58:41;;;;;;;14.10;11.33;;;;;;;10.36;79.74;96269.63;6155342;23;20167;-78
2021/09/21 01:01:06;;;;;;;12.90;11.60;;;;;;;10.40;79.04;96265.81;6157401;23;20161;-79
2021/09/21 01:03:31;;;;;;;14.97;11.90;;;;;;;10.34;79.60;96265.53;6156278;23;20151;-78
2021/09/21 01:05:56;;;;;;;12.93;11.57;;;;;;;10.30;79.97;96272.75;6158816;23;20175;-79
2021/09/21 01:08:29;;;;;;;14.83;11.17;;;;;;;10.37;79.40;96270.47;6157903;23;20163;-79
2021/09/21 01:10:54;;;;;;;13.00;11.63;;;;;;;10.29;79.37;96280.66;6132513;23;20183;-79
2021/09/21 01:13:19;;;;;;;14.67;11.60;;;;;;;10.26;79.52;96276.56;6157614;23;20214;-80
2021/09/21 01:15:45;;;;;;;13.27;11.03;;;;;;;10.23;79.34;96281.97;6157240;23;20221;-79
2021/09/21 01:18:10;;;;;;;13.87;12.27;;;;;;;10.27;79.72;96280.78;6157482;23;20156;-79
2021/09/21 01:20:36;;;;;;;12.60;11.30;;;;;;;10.28;79.80;96274.66;6157822;23;20175;-80
2021/09/21 01:23:02;;;;;;;13.77;11.40;;;;;;;10.31;79.31;96270.97;6133094;23;20159;-80
2021/09/21 01:25:28;;;;;;;12.63;11.33;;;;;;;10.32;79.86;96275.19;6156326;23;20182;-79
2021/09/21 01:27:53;;;;;;;13.47;11.47;;;;;;;10.29;79.83;96281.47;6158155;23;20155;-79
2021/09/21 01:30:18;;;;;;;14.73;11.47;;;;;;;10.32;79.89;96276.03;6157601;23;20191;-78
2021/09/21 01:32:44;;;;;;;12.97;11.47;;;;;;;10.34;79.22;96273.31;6133335;23;20159;-79
2021/09/21 01:35:11;;;;;;;14.53;11.40;;;;;;;10.42;78.76;96281.25;6156574;23;20567;-79
2021/09/21 01:37:41;;;;;;;12.97;11.10;;;;;;;10.38;79.04;96279.88;6159020;23;20171;-79
2021/09/21 01:40:07;;;;;;;14.10;10.90;;;;;;;10.27;79.55;96283.38;6157316;23;20545;-80
2021/09/21 01:42:32;;;;;;;13.27;11.23;;;;;;;10.33;78.60;96285.44;6156806;23;20162;-79
2021/09/21 01:44:57;;;;;;;13.20;11.53;;;;;;;10.16;79.41;96286.03;6157612;23;20495;-79
2021/09/21 01:47:23;;;;;;;14.13;12.50;;;;;;;10.23;78.43;96281.16;6156831;23;20676;-79
2021/09/21 01:52:45;;;;;;;12.93;11.50;;;;;;;10.14;78.65;96280.13;6158375;23;20144;-80
2021/09/21 01:55:14;;;;;;;12.40;11.10;;;;;;;10.17;78.69;96269.50;6154478;23;20518;-79
2021/09/21 02:00:23;;;;;;;12.93;11.40;;;;;;;10.03;78.63;96267.22;6158139;23;20145;-79
2021/09/21 02:02:49;;;;;;;15.20;11.47;;;;;;;10.02;78.49;96268.16;6156625;23;20250;-79
2021/09/21 02:05:14;;;;;;;14.33;12.07;;;;;;;9.98;78.81;96277.13;6156272;23;20657;-79
2021/09/21 02:07:39;;;;;;;12.83;11.50;;;;;;;10.05;78.25;96278.28;6131768;23;20254;-80
2021/09/21 02:10:05;;;;;;;13.40;11.43;;;;;;;9.98;78.22;96287.50;6158018;23;20202;-79
2021/09/21 02:12:30;;;;;;;12.37;11.07;;;;;;;9.90;79.59;96289.00;6156296;23;20497;-79
2021/09/21 02:14:59;;;;;;;14.40;12.10;;;;;;;9.94;79.24;96298.16;6131835;23;20546;-79
2021/09/21 02:17:24;;;;;;;13.60;11.77;;;;;;;9.93;79.49;96295.69;6156309;23;20151;-79
2021/09/21 02:19:50;;;;;;;15.03;11.93;;;;;;;9.94;79.67;96285.19;6132629;23;20174;-79
2021/09/21 02:22:15;;;;;;;16.20;11.80;;;;;;;9.98;79.40;96284.91;6156614;23;20203;-79
2021/09/21 02:24:40;;;;;;;13.87;11.77;;;;;;;9.99;79.30;96289.19;6130973;23;20170;-79
2021/09/21 02:27:06;;;;;;;13.13;10.70;;;;;;;9.94;79.71;96290.38;6156488;23;20201;-80
2021/09/21 02:29:31;;;;;;;13.57;11.50;;;;;;;9.95;80.57;96296.38;6158619;23;20227;-79
2021/09/21 02:31:56;;;;;;;13.53;12.13;;;;;;;10.01;80.31;96298.47;6131754;23;20171;-79
2021/09/21 02:34:22;;;;;;;12.43;11.23;;;;;;;9.99;80.19;96289.19;6155924;23;20155;-80
2021/09/21 02:36:47;;;;;;;12.20;10.90;;;;;;;10.01;79.98;96293.28;6131704;23;20686;-79
2021/09/21 02:39:12;;;;;;;12.40;11.10;;;;;;;10.01;80.90;96289.88;6159216;23;20151;-81
2021/09/21 02:41:38;;;;;;;12.70;11.40;;;;;;;10.00;80.23;96296.03;6154812;23;20242;-79
2021/09/21 02:44:03;;;;;;;14.63;12.67;;;;;;;10.00;80.29;96290.81;6153891;23;20659;-79
2021/09/21 02:46:29;;;;;;;12.80;11.27;;;;;;;9.94;80.86;96302.53;6154752;23;20176;-76
2021/09/21 02:48:54;;;;;;;14.33;11.20;;;;;;;9.97;80.18;96288.47;6154373;23;20178;-79
2021/09/21 02:51:19;;;;;;;13.83;11.90;;;;;;;9.97;80.51;96291.06;6155094;23;20155;-80
2021/09/21 02:53:45;;;;;;;13.10;11.73;;;;;;;9.98;80.73;96292.69;6154219;23;20187;-80
2021/09/21 02:56:12;;;;;;;13.73;12.23;;;;;;;10.03;80.80;96285.38;6127980;23;20195;-80
2021/09/21 02:58:39;;;;;;;12.83;11.20;;;;;;;9.96;81.44;96286.81;6155522;23;20193;-79
2021/09/21 03:01:04;;;;;;;14.67;11.70;;;;;;;9.94;81.12;96287.78;6157125;23;20155;-79
2021/09/21 03:03:33;;;;;;;14.03;11.60;;;;;;;9.98;81.11;96287.50;6154883;23;20159;-79
2021/09/21 03:06:06;;;;;;;14.43;12.43;;;;;;;9.92;81.45;96284.50;6156608;23;20174;-80
2021/09/21 03:08:34;;;;;;;13.40;11.67;;;;;;;9.91;81.01;96293.22;6133287;23;20159;-80
2021/09/21 03:11:13;;;;;;;13.60;11.73;;;;;;;9.89;80.85;96289.94;6155368;23;20274;-80
2021/09/21 03:18:48;;;;;;;14.53;11.87;;;;;;;9.83;81.98;96302.56;6156525;23;20213;-80
2021/09/21 03:21:13;;;;;;;14.07;12.47;;;;;;;9.82;81.42;96300.94;6156625;23;20482;-80
2021/09/21 03:23:39;;;;;;;13.37;11.93;;;;;;;9.87;81.48;96303.97;6155626;23;20541;-80
2021/09/21 03:26:04;;;;;;;16.10;12.87;;;;;;;9.82;81.52;96309.53;6131385;23;20179;-79
2021/09/21 03:28:29;;;;;;;14.07;12.47;;;;;;;9.76;81.81;96310.03;6157660;23;20162;-80
2021/09/21 03:30:55;;;;;;;14.93;12.87;;;;;;;9.74;83.00;96319.72;6157045;23;20179;-79
2021/09/21 03:33:20;;;;;;;14.83;12.33;;;;;;;9.72;82.62;96313.81;6156412;23;20668;-79
2021/09/21 03:35:45;;;;;;;15.53;11.67;;;;;;;9.76;82.21;96324.75;6155511;23;20508;-79
2021/09/21 03:38:11;;;;;;;14.67;11.70;;;;;;;9.76;82.21;96320.41;6157584;23;20156;-79
2021/09/21 03:40:36;;;;;;;13.43;12.00;;;;;;;9.73;82.20;96320.66;6157866;23;20148;-80
2021/09/21 03:43:01;;;;;;;14.93;12.40;;;;;;;9.76;82.50;96327.34;6158362;23;20159;-80
2021/09/21 03:45:27;;;;;;;15.97;12.47;;;;;;;9.73;82.42;96333.63;6154786;23;20250;-79
2021/09/21 03:47:53;;;;;;;16.83;12.03;;;;;;;9.71;83.11;96339.84;6155998;23;20214;-79
2021/09/21 03:50:19;;;;;;;13.23;11.83;;;;;;;9.64;82.75;96336.97;6132494;23;20278;-79
2021/09/21 03:52:44;;;;;;;15.47;11.90;;;;;;;9.68;82.93;96327.97;6156845;23;20155;-78
2021/09/21 03:55:10;;;;;;;16.77;12.10;;;;;;;9.68;82.79;96325.38;6129744;23;20178;-79
2021/09/21 03:57:35;;;;;;;13.67;12.23;;;;;;;9.74;81.92;96332.69;6132613;23;20160;-79
2021/09/21 04:00:01;;;;;;;15.50;11.67;;;;;;;9.77;81.21;96335.00;6157507;23;20230;-79
2021/09/21 04:02:26;;;;;;;13.27;11.80;;;;;;;9.60;81.41;96341.53;6132205;23;20606;-79
2021/09/21 04:04:51;;;;;;;13.77;11.67;;;;;;;9.60;81.16;96341.53;6156677;23;20177;-79
2021/09/21 04:07:16;;;;;;;15.37;12.37;;;;;;;9.63;81.02;96337.91;6133699;23;20179;-80
2021/09/21 04:09:42;;;;;;;13.30;12.00;;;;;;;9.72;80.17;96336.31;6157503;23;20175;-80
2021/09/21 04:12:07;;;;;;;12.90;11.30;;;;;;;9.65;80.17;96336.00;6157919;23;20144;-79
2021/09/21 04:14:33;;;;;;;13.33;11.37;;;;;;;9.51;80.16;96336.28;6156295;23;20593;-80
2021/09/21 04:16:59;;;;;;;12.73;11.50;;;;;;;9.39;80.14;96338.06;6132381;23;20186;-80
2021/09/21 04:19:25;;;;;;;13.70;10.43;;;;;;;9.40;79.95;96331.13;6156163;23;20144;-79
2021/09/21 04:21:50;;;;;;;14.53;10.97;;;;;;;9.36;79.95;96331.38;6156317;23;20155;-79
2021/09/21 04:24:16;;;;;;;12.73;11.53;;;;;;;9.18;81.06;96340.56;6155041;23;20517;-80
2021/09/21 04:26:41;;;;;;;16.37;12.57;;;;;;;9.18;81.80;96348.34;6132659;23;20210;-79
2021/09/21 04:29:06;;;;;;;13.03;11.73;;;;;;;9.17;81.99;96348.47;6132521;23;20182;-80
2021/09/21 04:31:33;;;;;;;12.97;11.57;;;;;;;9.16;81.89;96355.41;6156974;23;20156;-79
2021/09/21 04:33:58;;;;;;;13.47;11.77;;;;;;;9.24;81.59;96354.81;6156416;23;20523;-79
2021/09/21 04:36:24;;;;;;;12.37;11.13;;;;;;;9.30;80.56;96356.94;6156046;23;20202;-80
2021/09/21 04:38:49;;;;;;;12.40;11.03;;;;;;;9.14;80.89;96365.06;6132040;23;20581;-79
2021/09/21 04:41:15;;;;;;;15.10;11.47;;;;;;;8.95;81.41;96377.81;6156837;23;20513;-80
2021/09/21 04:43:40;;;;;;;12.47;11.23;;;;;;;8.99;81.39;96379.22;6131357;23;20553;-79
2021/09/21 04:46:08;;;;;;;12.70;11.33;;;;;;;8.98;81.60;96387.91;6156721;23;20171;-78
2021/09/21 04:48:34;;;;;;;13.57;11.97;;;;;;;8.95;82.02;96394.16;6155623;23;20155;-80
2021/09/21 04:50:59;;;;;;;12.93;11.67;;;;;;;9.02;81.68;96397.13;6156276;23;20266;-79
2021/09/21 04:53:25;;;;;;;13.80;12.27;;;;;;;9.08;81.10;96401.81;6156469;23;20151;-80
2021/09/21 04:55:50;;;;;;;12.67;11.10;;;;;;;9.15;80.35;96403.00;6130877;23;20749;-80
2021/09/21 04:58:15;;;;;;;13.03;11.73;;;;;;;9.08;79.68;96405.22;6156339;23;20601;-80
2021/09/21 05:00:40;;;;;;;15.00;11.10;;;;;;;9.06;79.53;96404.53;6156341;23;20222;-79
2021/09/21 05:03:06;;;;;;;14.17;11.70;;;;;;;9.11;78.83;96411.97;6156029;23;20242;-79
2021/09/21 05:05:31;;;;;;;11.87;10.43;;;;;;;9.14;78.22;96424.69;6154155;23;20466;-80
2021/09/21 05:07:57;;;;;;;12.00;10.73;;;;;;;9.16;78.39;96422.78;6156636;23;20155;-80
2021/09/21 05:10:23;;;;;;;13.10;11.77;;;;;;;9.19;78.41;96422.56;6156772;23;20182;-79
2021/09/21 05:12:48;;;;;;;12.27;10.53;;;;;;;9.22;78.76;96435.28;6132379;23;20246;-79
2021/09/21 05:15:14;;;;;;;13.83;12.20;;;;;;;9.22;78.59;96435.28;6155382;23;20140;-79
2021/09/21 05:17:39;;;;;;;13.37;11.00;;;;;;;9.20;78.29;96437.19;6157155;23;20156;-80
2021/09/21 05:20:06;;;;;;;13.00;10.90;;;;;;;9.22;78.29;96443.06;6159506;23;20163;-80
2021/09/21 05:22:32;;;;;;;12.50;10.30;;;;;;;9.15;78.28;96444.47;6132914;23;20167;-80
2021/09/21 05:24:57;;;;;;;11.83;10.63;;;;;;;9.24;78.23;96440.34;6156607;23;20712;-81
2021/09/21 05:27:23;;;;;;;12.47;11.27;;;;;;;9.20;78.06;96449.31;6132555;23;20183;-82
2021/09/21 05:29:48;;;;;;;12.77;10.67;;;;;;;9.28;78.13;96449.56;6134028;23;20176;-81
2021/09/21 05:32:13;;;;;;;14.57;11.33;;;;;;;9.30;77.68;96452.84;6131891;23;20571;-80
2021/09/21 05:34:38;;;;;;;15.03;11.50;;;;;;;9.25;77.43;96453.19;6156214;23;20163;-80
2021/09/21 05:37:04;;;;;;;11.27;10.07;;;;;;;9.28;76.89;96447.78;6132007;23;20509;-80
2021/09/21 05:39:29;;;;;;;11.90;10.60;;;;;;;9.28;77.55;96442.59;6155595;23;20147;-80
2021/09/21 05:41:54;;;;;;;11.20;10.13;;;;;;;9.32;77.32;96449.19;6155736;23;20160;-80
2021/09/21 05:44:20;;;;;;;12.30;10.17;;;;;;;9.39;76.96;96449.53;6129559;23;20194;-80
2021/09/21 05:46:45;;;;;;;11.30;10.10;;;;;;;9.40;77.16;96453.78;6132605;23;20183;-81
2021/09/21 05:49:11;;;;;;;11.97;10.40;;;;;;;9.41;76.87;96449.41;6156961;23;20771;-80
2021/09/21 05:51:36;;;;;;;11.37;10.17;;;;;;;9.49;77.38;96460.03;6132498;23;20156;-80
2021/09/21 05:54:02;;;;;;;11.47;9.83;;;;;;;9.62;76.02;96458.94;6130931;23;20609;-80
2021/09/21 05:56:27;;;;;;;12.77;10.37;;;;;;;9.61;76.14;96459.06;6156212;23;20190;-80
2021/09/21 05:58:52;;;;;;;11.77;10.50;;;;;;;9.58;75.66;96459.31;6131927;23;20171;-80
2021/09/21 06:01:18;;;;;;;12.47;10.47;;;;;;;9.59;75.62;96456.59;6132307;23;20501;-80
2021/09/21 06:03:43;;;;;;;12.37;10.80;;;;;;;9.54;76.17;96460.47;6130928;23;20159;-80
2021/09/21 06:06:08;;;;;;;11.63;10.10;;;;;;;9.49;75.85;96460.03;6156821;23;20246;-79
2021/09/21 06:08:34;;;;;;;11.60;9.73;;;;;;;9.50;76.11;96454.72;6157715;23;20281;-80
2021/09/21 06:10:59;;;;;;;10.63;9.57;;;;;;;9.56;76.14;96462.03;6156088;23;20189;-80
2021/09/21 06:13:25;;;;;;;11.20;10.10;;;;;;;9.56;75.65;96458.63;6156247;23;20159;-80
2021/09/21 06:15:50;;;;;;;11.60;9.63;;;;;;;9.50;76.09;96472.88;6131041;23;20175;-80
2021/09/21 06:18:16;;;;;;;11.40;10.30;;;;;;;9.63;75.50;96477.94;6131701;23;20167;-81
2021/09/21 06:20:42;;;;;;;11.30;10.20;;;;;;;9.60;75.50;96480.75;6155796;23;20179;-80
2021/09/21 06:23:08;;;;;;;12.27;9.83;;;;;;;9.67;74.83;96479.34;6131237;23;20166;-79
2021/09/21 06:25:34;;;;;;;10.50;9.43;;;;;;;9.86;73.38;96483.91;6155590;23;20566;-80
2021/09/21 06:27:59;;;;;;;11.53;9.47;;;;;;;9.75;73.30;96492.53;6156715;23;20159;-80
2021/09/21 06:30:25;;;;;;;10.90;9.47;;;;;;;9.77;72.86;96492.41;6156758;23;20179;-80
2021/09/21 06:32:50;;;;;;;11.23;10.10;;;;;;;9.69;73.04;96505.97;6156486;23;20158;-81
2021/09/21 06:35:15;;;;;;;11.87;10.17;;;;;;;9.85;73.13;96508.22;6131519;23;20159;-80
2021/09/21 06:37:41;;;;;;;10.93;9.83;;;;;;;9.79;73.57;96516.47;6156433;23;20216;-80
2021/09/21 06:40:08;;;;;;;11.93;9.97;;;;;;;9.51;74.09;96525.53;6131515;23;20298;-80
2021/09/21 06:42:35;;;;;;;13.57;10.63;;;;;;;9.56;74.31;96526.03;6157909;23;20158;-80
2021/09/21 06:45:04;;;;;;;11.07;9.37;;;;;;;9.56;74.42;96533.81;6154309;23;20527;-80
2021/09/21 06:47:30;;;;;;;12.83;10.30;;;;;;;9.50;74.18;96535.09;6131831;23;20167;-80
2021/09/21 06:49:55;;;;;;;11.50;10.30;;;;;;;9.72;74.03;96536.03;6157062;23;20462;-80
2021/09/21 06:52:20;;;;;;;12.00;10.83;;;;;;;9.62;74.03;96526.38;6155999;23;20178;-79
2021/09/21 06:54:46;;;;;;;11.17;9.97;;;;;;;9.63;73.87;96527.22;6155227;23;20224;-79
2021/09/21 06:57:11;;;;;;;11.63;10.43;;;;;;;9.64;74.06;96531.47;6155832;23;20194;-79
2021/09/21 06:59:36;;;;;;;11.93;9.87;;;;;;;9.66;74.37;96542.53;6155861;23;20147;-80
2021/09/21 07:02:02;;;;;;;12.83;11.53;;;;;;;9.67;72.86;96539.00;6156346;23;20171;-79
2021/09/21 07:04:27;;;;;;;12.03;10.83;;;;;;;9.72;72.46;96546.41;6130914;23;20174;-79
2021/09/21 07:06:52;;;;;;;11.67;10.53;;;;;;;9.89;72.21;96551.97;6156089;23;20183;-79
2021/09/21 07:09:18;;;;;;;10.97;9.87;;;;;;;9.79;72.53;96555.38;6131407;23;20191;-80
2021/09/21 07:11:43;;;;;;;13.10;11.70;;;;;;;9.96;71.36;96564.44;6131285;23;20163;-79
2021/09/21 07:14:09;;;;;;;14.73;10.27;;;;;;;10.09;71.17;96572.94;6155136;23;20148;-79
2021/09/21 07:16:34;;;;;;;11.43;10.33;;;;;;;10.20;70.40;96570.34;6156407;23;20222;-79
2021/09/21 07:18:59;;;;;;;11.23;10.13;;;;;;;10.68;69.01;96570.81;6157125;23;20510;-80
2021/09/21 07:21:25;;;;;;;14.00;10.43;;;;;;;10.85;68.52;96579.03;6158049;23;20160;-80
2021/09/21 07:23:50;;;;;;;10.00;9.10;;;;;;;11.18;67.11;96576.28;6157336;23;20151;-80
2021/09/21 07:26:15;;;;;;;10.80;8.93;;;;;;;11.38;65.87;96574.63;6158483;23;20226;-80
2021/09/21 07:28:41;;;;;;;9.60;8.60;;;;;;;11.56;66.31;96578.31;6158285;23;20174;-80
2021/09/21 07:31:06;;;;;;;10.53;9.13;;;;;;;11.50;65.15;96591.84;6133686;23;20182;-80
2021/09/21 07:33:31;;;;;;;11.40;9.50;;;;;;;11.40;66.36;96592.75;6132992;23;20243;-80
2021/09/21 07:35:57;;;;;;;11.73;9.53;;;;;;;11.45;66.64;96599.19;6157992;23;20175;-81
2021/09/21 07:38:22;;;;;;;10.00;9.00;;;;;;;11.57;66.13;96599.94;6134005;23;20163;-80
2021/09/21 07:40:48;;;;;;;11.87;9.57;;;;;;;11.33;67.26;96605.41;6158187;23;20158;-80
2021/09/21 07:43:14;;;;;;;13.03;9.27;;;;;;;11.49;65.96;96599.78;6158248;23;20159;-80
2021/09/21 07:45:39;;;;;;;12.33;10.07;;;;;;;11.78;66.20;96599.94;6132321;23;20183;-81
2021/09/21 07:48:05;;;;;;;9.83;8.83;;;;;;;11.49;66.67;96598.00;6157510;23;20262;-80
2021/09/21 07:50:31;;;;;;;11.87;9.10;;;;;;;11.78;64.37;96605.16;6133097;23;20195;-81
2021/09/21 07:52:57;;;;;;;11.37;9.30;;;;;;;11.63;62.40;96600.25;6133875;23;20206;-81
2021/09/21 07:55:23;;;;;;;10.27;9.07;;;;;;;11.50;64.05;96606.63;6157558;23;20190;-80
2021/09/21 07:57:48;;;;;;;10.23;8.53;;;;;;;11.94;62.89;96608.13;6134105;23;20158;-80
2021/09/21 08:00:15;;;;;;;11.80;8.93;;;;;;;12.15;61.46;96619.31;6158767;23;20155;-80
2021/09/21 08:02:41;;;;;;;9.93;7.87;;;;;;;12.33;61.02;96618.69;6158103;23;20594;-80
2021/09/21 08:05:07;;;;;;;9.73;8.73;;;;;;;12.37;60.60;96622.69;6157298;23;20159;-81
2021/09/21 08:07:32;;;;;;;9.80;8.90;;;;;;;12.73;59.26;96608.25;6158205;23;20163;-81
2021/09/21 08:09:59;;;;;;;9.67;8.67;;;;;;;12.81;59.45;96615.38;6157348;23;20194;-80
2021/09/21 08:12:29;;;;;;;9.07;8.13;;;;;;;12.48;57.69;96622.59;6158900;23;20162;-80
2021/09/21 08:14:55;;;;;;;8.63;7.73;;;;;;;12.59;58.63;96613.84;6132498;23;20163;-80
2021/09/21 08:17:24;;;;;;;12.23;8.53;;;;;;;12.64;58.07;96620.31;6157695;23;20242;-80
2021/09/21 08:19:50;;;;;;;9.10;8.13;;;;;;;12.67;58.64;96624.41;6158340;23;20564;-80
2021/09/21 08:22:17;;;;;;;8.93;7.77;;;;;;;12.95;57.21;96622.81;6158673;23;20415;-80
2021/09/21 08:24:43;;;;;;;9.97;7.70;;;;;;;12.90;54.54;96625.00;6132272;23;20517;-80
2021/09/21 08:27:08;;;;;;;9.57;7.40;;;;;;;13.02;55.50;96629.94;6133014;23;20179;-79
2021/09/21 08:29:33;;;;;;;8.23;7.40;;;;;;;13.43;53.81;96628.06;6132769;23;20186;-80
2021/09/21 08:31:59;;;;;;;9.53;7.30;;;;;;;12.84;55.49;96625.53;6133632;23;20155;-79
2021/09/21 08:34:24;;;;;;;9.40;7.33;;;;;;;12.42;57.26;96628.31;6157411;23;20158;-79
2021/09/21 08:36:51;;;;;;;8.43;7.27;;;;;;;12.58;56.56;96620.81;6132497;23;20175;-81
2021/09/21 08:39:17;;;;;;;7.83;7.03;;;;;;;12.56;55.82;96621.94;6154941;23;20159;-80
2021/09/21 08:41:42;;;;;;;8.33;7.53;;;;;;;12.61;57.84;96619.72;6157491;23;20202;-80
2021/09/21 08:44:09;;;;;;;8.00;6.97;;;;;;;12.36;55.94;96628.84;6157203;23;20159;-80
2021/09/21 08:46:35;;;;;;;9.60;7.10;;;;;;;12.57;57.12;96634.81;6136576;23;20174;-80
2021/09/21 08:49:00;;;;;;;8.23;7.43;;;;;;;12.80;57.14;96645.00;6132554;23;20210;-80
2021/09/21 08:51:25;;;;;;;8.97;8.17;;;;;;;12.75;55.25;96648.84;6156856;23;20481;-79
2021/09/21 08:53:51;;;;;;;8.97;8.07;;;;;;;13.05;54.57;96652.31;6156253;23;20167;-80
2021/09/21 08:56:16;;;;;;;10.13;7.27;;;;;;;13.42;52.74;96649.88;6132075;23;20536;-80
2021/09/21 08:58:42;;;;;;;7.13;6.30;;;;;;;13.60;52.93;96657.81;6128319;23;20167;-80
2021/09/21 09:01:15;;;;;;;8.83;7.97;;;;;;;13.47;53.59;96660.72;6129624;23;20166;-80
2021/09/21 09:03:51;;;;;;;7.57;6.87;;;;;;;13.36;54.09;96670.50;6128802;23;20246;-80
2021/09/21 09:06:16;;;;;;;9.90;7.87;;;;;;;13.68;53.04;96662.34;6154086;23;20179;-80
2021/09/21 09:08:43;;;;;;;7.20;6.20;;;;;;;13.65;51.96;96667.84;6154469;23;20239;-81
2021/09/21 09:11:19;;;;;;;6.70;6.10;;;;;;;13.14;50.83;96669.75;6129440;23;20190;-81
2021/09/21 09:13:50;;;;;;;7.57;6.10;;;;;;;13.17;51.27;96666.06;6128779;23;20162;-80
2021/09/21 09:16:17;;;;;;;12.07;7.00;;;;;;;12.63;52.60;96668.16;6154484;23;20617;-81
2021/09/21 09:18:44;;;;;;;9.97;7.23;;;;;;;12.44;54.25;96671.50;6151617;23;20585;-81
2021/09/21 09:21:10;;;;;;;9.07;8.17;;;;;;;12.54;53.72;96687.16;6129796;23;20522;-80
2021/09/21 09:23:45;;;;;;;9.03;8.13;;;;;;;12.52;53.99;96680.44;6128354;23;20425;-80
2021/09/21 09:26:11;;;;;;;8.97;8.17;;;;;;;13.15;53.41;96681.81;6129708;23;20246;-82
2021/09/21 09:28:36;;;;;;;8.60;7.37;;;;;;;13.01;52.70;96674.41;6155724;23;20155;-81
2021/09/21 09:31:02;;;;;;;8.23;7.43;;;;;;;12.55;53.51;96683.63;6154234;23;20184;-81
2021/09/21 09:33:31;;;;;;;8.83;7.93;;;;;;;12.68;53.44;96688.59;6128913;23;20167;-81
2021/09/21 09:35:59;;;;;;;10.30;7.53;;;;;;;12.57;54.92;96680.91;6128741;23;20191;-81
2021/09/21 09:38:24;;;;;;;8.83;7.07;;;;;;;12.80;53.50;96671.06;6154099;23;20151;-81
2021/09/21 09:40:52;;;;;;;9.30;7.97;;;;;;;12.89;51.92;96662.44;6153853;23;20190;-81
2021/09/21 09:43:21;;;;;;;8.40;7.60;;;;;;;13.20;52.24;96666.63;6154470;23;20159;-81
2021/09/21 09:45:49;;;;;;;8.33;7.63;;;;;;;12.68;52.76;96668.56;6152111;23;20175;-81
2021/09/21 09:48:19;;;;;;;9.37;7.50;;;;;;;12.49;53.74;96676.34;6129378;23;20186;-81
2021/09/21 09:50:46;;;;;;;10.37;7.40;;;;;;;12.83;54.26;96673.44;6153689;23;20262;-81
2021/09/21 09:53:11;;;;;;;8.83;7.97;;;;;;;13.19;52.86;96672.81;6130588;23;20163;-81
2021/09/21 09:55:37;;;;;;;8.07;7.27;;;;;;;13.10;52.30;96668.38;6173240;23;20258;-81
2021/09/21 09:58:05;;;;;;;8.13;7.37;;;;;;;13.10;53.69;96665.78;6175897;23;20183;-82
2021/09/21 10:00:30;;;;;;;8.70;7.87;;;;;;;13.09;52.47;96666.75;6152590;23;20144;-82
2021/09/21 10:02:56;;;;;;;8.80;7.90;;;;;;;12.93;52.67;96682.09;6152668;23;20159;-81
2021/09/21 10:05:21;;;;;;;8.87;8.03;;;;;;;13.32;51.37;96677.75;6151217;23;20175;-82
2021/09/21 10:07:47;;;;;;;10.73;7.97;;;;;;;13.02;52.63;96679.50;6152361;23;20156;-82
2021/09/21 10:10:13;;;;;;;10.87;8.60;;;;;;;13.07;52.72;96689.50;6152361;23;20199;-82
2021/09/21 10:12:39;;;;;;;8.97;8.07;;;;;;;13.49;51.68;96689.28;6176141;23;20139;-82
2021/09/21 10:15:08;;;;;;;12.87;8.43;;;;;;;13.59;50.30;96692.72;6176506;23;20202;-80
2021/09/21 10:17:35;;;;;;;9.10;8.20;;;;;;;13.83;51.29;96707.97;6176564;23;20215;-82
2021/09/21 10:20:01;;;;;;;10.73;8.30;;;;;;;13.32;50.42;96699.44;6155313;23;20191;-80
2021/09/21 10:22:28;;;;;;;10.43;8.20;;;;;;;13.13;51.18;96701.19;6179745;23;20251;-81
2021/09/21 10:24:54;;;;;;;10.83;7.87;;;;;;;13.31;52.11;96703.03;6179256;23;20653;-82
2021/09/21 10:27:22;;;;;;;11.87;8.40;;;;;;;13.39;50.70;96710.16;6155058;23;20195;-83
2021/09/21 10:29:58;;;;;;;9.63;8.50;;;;;;;13.47;52.29;96704.28;6154932;23;20175;-82
2021/09/21 10:32:25;;;;;;;9.60;8.60;;;;;;;13.18;51.67;96707.66;6179779;23;20150;-79
2021/09/21 10:34:50;;;;;;;11.20;8.53;;;;;;;13.29;51.81;96709.34;6153890;23;20146;-83
2021/09/21 10:37:17;;;;;;;10.77;9.30;;;;;;;14.01;49.76;96708.06;6176523;23;20211;-80
2021/09/21 10:39:42;;;;;;;9.83;8.77;;;;;;;14.29;49.82;96708.97;6178714;23;20144;-81
2021/09/21 10:42:10;;;;;;;9.17;8.17;;;;;;;14.13;50.52;96704.31;6179512;23;20163;-81
2021/09/21 10:44:36;;;;;;;9.70;8.30;;;;;;;14.04;49.62;96711.22;6178858;23;20187;-79
2021/09/21 10:47:06;;;;;;;10.13;7.60;;;;;;;13.97;49.49;96711.94;6177931;23;20170;-80
2021/09/21 10:49:35;;;;;;;9.43;7.63;;;;;;;14.16;49.76;96715.31;6179601;23;20163;-81
2021/09/21 10:52:11;;;;;;;9.30;8.40;;;;;;;13.52;51.30;96717.75;6181395;23;20159;-80
2021/09/21 10:54:50;;;;;;;8.93;8.03;;;;;;;13.77;49.60;96714.53;6179222;23;20147;-80
2021/09/21 10:57:29;;;;;;;8.70;7.80;;;;;;;14.00;49.51;96717.69;6154543;23;20285;-80
2021/09/21 10:59:57;;;;;;;9.97;8.03;;;;;;;14.27;48.87;96714.31;6154410;23;20155;-79
2021/09/21 11:02:43;;;;;;;8.47;7.60;;;;;;;14.58;47.70;96716.75;6178066;23;20151;-80
2021/09/21 11:05:17;;;;;;;10.13;7.37;;;;;;;14.45;47.83;96710.03;6178641;23;20143;-82
2021/09/21 11:07:58;;;;;;;8.43;7.20;;;;;;;13.88;48.56;96705.75;6155166;23;20155;-80
2021/09/21 11:10:49;;;;;;;8.17;7.33;;;;;;;14.05;48.25;96704.22;6177630;23;20227;-79
2021/09/21 11:13:17;;;;;;;7.67;6.87;;;;;;;14.06;49.92;96705.88;6176790;23;20155;-80
2021/09/21 11:15:43;;;;;;;7.33;6.63;;;;;;;14.02;49.01;96697.47;6176859;23;20223;-80
2021/09/21 11:18:11;;;;;;;7.47;6.77;;;;;;;13.76;49.02;96699.84;6178355;23;20159;-79
2021/09/21 11:20:50;;;;;;;9.63;6.77;;;;;;;14.15;48.64;96699.81;6154183;23;20151;-80
2021/09/21 11:23:16;;;;;;;8.77;7.40;;;;;;;14.58;47.53;96704.50;6175289;23;20155;-81
2021/09/21 11:25:43;;;;;;;7.27;6.57;;;;;;;14.78;47.69;96700.00;6174151;23;20175;-82
2021/09/21 11:28:08;;;;;;;7.33;6.63;;;;;;;14.12;49.68;96702.69;6171633;23;20151;-80
2021/09/21 11:30:34;;;;;;;7.70;6.90;;;;;;;14.49;48.33;96713.19;6165057;23;20675;-81
2021/09/21 11:33:19;;;;;;;7.77;7.07;;;;;;;14.68;49.17;96704.47;6158393;23;20162;-81